Terminal Aerodrome Forecast
Issued by NWS Bismarck, ND

Home | Current Version | Previous Version | Graphics & Text | Print | Product List | Glossary On
Versions: 1 2 3 4 5 6 7 8 9 10 11 12 13 14 15 16 17 18 19 20 21 22
000
FTUS43 KBIS 261100
TAFBIS
TAF
KBIS 261125Z 2612/2712 24005KT P6SM SCT025 SCT120
     FM261500 20005KT P6SM SCT040 BKN100
     FM261800 19006KT P6SM VCSH BKN040 BKN080
     FM270200 14005KT P6SM SCT040=

USA.gov is the U.S. government's official web portal to all federal, state and local government web resources and services.